sensor_id;sensor_type;location;lat;lon;timestamp;P1;durP1;ratioP1;P2;durP2;ratioP2
38843;SDS011;24596;48.080;8.362;2024-03-29T00:00:20;3.35;;;1.33;;
38843;SDS011;24596;48.080;8.362;2024-03-29T00:02:45;3.42;;;1.20;;
38843;SDS011;24596;48.080;8.362;2024-03-29T00:05:11;5.45;;;1.50;;
38843;SDS011;24596;48.080;8.362;2024-03-29T00:07:36;3.17;;;0.90;;
38843;SDS011;24596;48.080;8.362;2024-03-29T00:10:01;5.65;;;1.23;;
38843;SDS011;24596;48.080;8.362;2024-03-29T00:12:26;3.92;;;1.10;;
38843;SDS011;24596;48.080;8.362;2024-03-29T00:14:52;4.30;;;1.23;;
38843;SDS011;24596;48.080;8.362;2024-03-29T00:17:17;3.05;;;0.90;;
38843;SDS011;24596;48.080;8.362;2024-03-29T00:19:43;3.75;;;0.95;;
38843;SDS011;24596;48.080;8.362;2024-03-29T00:22:08;7.43;;;2.50;;
38843;SDS011;24596;48.080;8.362;2024-03-29T00:24:34;8.07;;;2.70;;
38843;SDS011;24596;48.080;8.362;2024-03-29T00:26:59;8.55;;;2.17;;
38843;SDS011;24596;48.080;8.362;2024-03-29T00:29:24;6.15;;;2.40;;
38843;SDS011;24596;48.080;8.362;2024-03-29T00:31:51;10.88;;;2.70;;
38843;SDS011;24596;48.080;8.362;2024-03-29T00:34:17;8.02;;;2.92;;
38843;SDS011;24596;48.080;8.362;2024-03-29T00:36:42;9.35;;;3.03;;
38843;SDS011;24596;48.080;8.362;2024-03-29T00:39:07;19.58;;;4.47;;
38843;SDS011;24596;48.080;8.362;2024-03-29T00:41:36;11.75;;;2.97;;
38843;SDS011;24596;48.080;8.362;2024-03-29T00:44:01;7.85;;;2.67;;
38843;SDS011;24596;48.080;8.362;2024-03-29T00:46:26;8.25;;;3.25;;
38843;SDS011;24596;48.080;8.362;2024-03-29T00:48:52;12.32;;;3.60;;
38843;SDS011;24596;48.080;8.362;2024-03-29T00:51:17;5.88;;;2.67;;
38843;SDS011;24596;48.080;8.362;2024-03-29T00:53:42;5.22;;;2.33;;
38843;SDS011;24596;48.080;8.362;2024-03-29T00:56:08;8.73;;;2.20;;
38843;SDS011;24596;48.080;8.362;2024-03-29T00:58:33;8.18;;;2.65;;
38843;SDS011;24596;48.080;8.362;2024-03-29T01:00:58;5.82;;;1.98;;
38843;SDS011;24596;48.080;8.362;2024-03-29T01:03:23;6.47;;;2.53;;
38843;SDS011;24596;48.080;8.362;2024-03-29T01:05:49;7.68;;;2.00;;
38843;SDS011;24596;48.080;8.362;2024-03-29T01:08:14;6.18;;;2.22;;
38843;SDS011;24596;48.080;8.362;2024-03-29T01:10:39;7.15;;;1.85;;
38843;SDS011;24596;48.080;8.362;2024-03-29T01:13:05;4.45;;;1.33;;
38843;SDS011;24596;48.080;8.362;2024-03-29T01:15:30;4.60;;;1.52;;
38843;SDS011;24596;48.080;8.362;2024-03-29T01:17:55;3.15;;;1.40;;
38843;SDS011;24596;48.080;8.362;2024-03-29T01:20:20;6.70;;;1.80;;
38843;SDS011;24596;48.080;8.362;2024-03-29T01:22:46;6.95;;;1.85;;
38843;SDS011;24596;48.080;8.362;2024-03-29T01:25:11;7.00;;;1.83;;
38843;SDS011;24596;48.080;8.362;2024-03-29T01:27:38;9.50;;;1.60;;
38843;SDS011;24596;48.080;8.362;2024-03-29T01:30:04;4.70;;;1.83;;
38843;SDS011;24596;48.080;8.362;2024-03-29T01:32:29;3.83;;;1.63;;
38843;SDS011;24596;48.080;8.362;2024-03-29T01:34:57;3.50;;;1.50;;
38843;SDS011;24596;48.080;8.362;2024-03-29T01:37:22;4.32;;;1.38;;
38843;SDS011;24596;48.080;8.362;2024-03-29T01:39:48;5.88;;;1.70;;
38843;SDS011;24596;48.080;8.362;2024-03-29T01:42:13;4.20;;;1.60;;
38843;SDS011;24596;48.080;8.362;2024-03-29T01:44:38;6.43;;;1.90;;
38843;SDS011;24596;48.080;8.362;2024-03-29T01:47:04;5.68;;;1.98;;
38843;SDS011;24596;48.080;8.362;2024-03-29T01:49:29;4.57;;;1.67;;
38843;SDS011;24596;48.080;8.362;2024-03-29T01:51:55;4.32;;;1.20;;
38843;SDS011;24596;48.080;8.362;2024-03-29T01:54:20;3.63;;;1.10;;
38843;SDS011;24596;48.080;8.362;2024-03-29T01:56:46;2.92;;;1.10;;
38843;SDS011;24596;48.080;8.362;2024-03-29T01:59:15;2.03;;;0.90;;
38843;SDS011;24596;48.080;8.362;2024-03-29T02:01:41;2.60;;;1.00;;
38843;SDS011;24596;48.080;8.362;2024-03-29T02:04:07;3.67;;;1.25;;
38843;SDS011;24596;48.080;8.362;2024-03-29T02:06:33;3.78;;;1.10;;
38843;SDS011;24596;48.080;8.362;2024-03-29T02:08:58;4.00;;;1.40;;
38843;SDS011;24596;48.080;8.362;2024-03-29T02:11:23;3.60;;;1.30;;
38843;SDS011;24596;48.080;8.362;2024-03-29T02:13:49;3.45;;;1.33;;
38843;SDS011;24596;48.080;8.362;2024-03-29T02:16:14;6.13;;;1.25;;
38843;SDS011;24596;48.080;8.362;2024-03-29T02:18:40;4.20;;;1.30;;
38843;SDS011;24596;48.080;8.362;2024-03-29T02:21:05;5.20;;;1.50;;
38843;SDS011;24596;48.080;8.362;2024-03-29T02:23:32;2.33;;;1.00;;
38843;SDS011;24596;48.080;8.362;2024-03-29T02:25:57;3.15;;;1.20;;
38843;SDS011;24596;48.080;8.362;2024-03-29T02:28:23;3.67;;;1.30;;
38843;SDS011;24596;48.080;8.362;2024-03-29T02:30:49;6.55;;;1.17;;
38843;SDS011;24596;48.080;8.362;2024-03-29T02:33:14;3.20;;;1.10;;
38843;SDS011;24596;48.080;8.362;2024-03-29T02:35:40;3.20;;;0.95;;
38843;SDS011;24596;48.080;8.362;2024-03-29T02:38:05;3.65;;;1.08;;
38843;SDS011;24596;48.080;8.362;2024-03-29T02:40:30;3.38;;;1.10;;
38843;SDS011;24596;48.080;8.362;2024-03-29T02:42:55;2.60;;;0.90;;
38843;SDS011;24596;48.080;8.362;2024-03-29T02:45:21;3.75;;;1.38;;
38843;SDS011;24596;48.080;8.362;2024-03-29T02:47:46;3.90;;;1.13;;
38843;SDS011;24596;48.080;8.362;2024-03-29T02:50:12;3.30;;;1.10;;
38843;SDS011;24596;48.080;8.362;2024-03-29T02:52:38;5.43;;;1.30;;
38843;SDS011;24596;48.080;8.362;2024-03-29T02:55:03;3.53;;;1.13;;
38843;SDS011;24596;48.080;8.362;2024-03-29T02:57:29;6.80;;;1.95;;
38843;SDS011;24596;48.080;8.362;2024-03-29T02:59:54;5.05;;;1.63;;
38843;SDS011;24596;48.080;8.362;2024-03-29T03:02:22;3.58;;;1.30;;
38843;SDS011;24596;48.080;8.362;2024-03-29T03:04:47;1.73;;;0.80;;
38843;SDS011;24596;48.080;8.362;2024-03-29T03:07:13;0.68;;;0.43;;
38843;SDS011;24596;48.080;8.362;2024-03-29T03:09:57;1.92;;;0.93;;
38843;SDS011;24596;48.080;8.362;2024-03-29T03:12:41;5.65;;;1.35;;
38843;SDS011;24596;48.080;8.362;2024-03-29T03:15:06;2.22;;;0.98;;
38843;SDS011;24596;48.080;8.362;2024-03-29T03:17:31;2.30;;;0.90;;
38843;SDS011;24596;48.080;8.362;2024-03-29T03:19:57;3.47;;;1.00;;
38843;SDS011;24596;48.080;8.362;2024-03-29T03:22:22;5.03;;;1.27;;
38843;SDS011;24596;48.080;8.362;2024-03-29T03:24:47;3.42;;;1.25;;
38843;SDS011;24596;48.080;8.362;2024-03-29T03:27:13;4.32;;;1.13;;
38843;SDS011;24596;48.080;8.362;2024-03-29T03:29:38;3.92;;;1.25;;
38843;SDS011;24596;48.080;8.362;2024-03-29T03:32:04;1.13;;;0.60;;
38843;SDS011;24596;48.080;8.362;2024-03-29T03:34:30;3.03;;;0.95;;
38843;SDS011;24596;48.080;8.362;2024-03-29T03:36:55;1.70;;;0.73;;
38843;SDS011;24596;48.080;8.362;2024-03-29T03:39:20;4.20;;;1.05;;
38843;SDS011;24596;48.080;8.362;2024-03-29T03:41:46;3.33;;;0.70;;
38843;SDS011;24596;48.080;8.362;2024-03-29T03:44:11;1.73;;;0.70;;
38843;SDS011;24596;48.080;8.362;2024-03-29T03:46:37;1.45;;;0.60;;
38843;SDS011;24596;48.080;8.362;2024-03-29T03:49:02;1.42;;;0.68;;
38843;SDS011;24596;48.080;8.362;2024-03-29T03:51:27;2.67;;;0.70;;
38843;SDS011;24596;48.080;8.362;2024-03-29T03:53:52;1.30;;;0.43;;
38843;SDS011;24596;48.080;8.362;2024-03-29T03:56:18;2.65;;;0.80;;
38843;SDS011;24596;48.080;8.362;2024-03-29T03:58:44;3.83;;;1.05;;
38843;SDS011;24596;48.080;8.362;2024-03-29T04:01:09;3.65;;;1.17;;
38843;SDS011;24596;48.080;8.362;2024-03-29T04:03:34;2.13;;;1.00;;
38843;SDS011;24596;48.080;8.362;2024-03-29T04:06:02;5.03;;;1.85;;
38843;SDS011;24596;48.080;8.362;2024-03-29T04:08:27;3.08;;;1.20;;
38843;SDS011;24596;48.080;8.362;2024-03-29T04:10:53;4.10;;;1.48;;
38843;SDS011;24596;48.080;8.362;2024-03-29T04:13:18;2.88;;;1.10;;
38843;SDS011;24596;48.080;8.362;2024-03-29T04:15:43;5.05;;;1.50;;
38843;SDS011;24596;48.080;8.362;2024-03-29T04:18:08;3.85;;;1.45;;
38843;SDS011;24596;48.080;8.362;2024-03-29T04:20:34;6.40;;;1.48;;
38843;SDS011;24596;48.080;8.362;2024-03-29T04:22:59;4.57;;;1.08;;
38843;SDS011;24596;48.080;8.362;2024-03-29T04:25:24;3.08;;;1.10;;
38843;SDS011;24596;48.080;8.362;2024-03-29T04:27:50;1.55;;;0.73;;
38843;SDS011;24596;48.080;8.362;2024-03-29T04:30:15;3.00;;;1.05;;
38843;SDS011;24596;48.080;8.362;2024-03-29T04:32:40;3.58;;;1.25;;
38843;SDS011;24596;48.080;8.362;2024-03-29T04:35:05;3.75;;;1.25;;
38843;SDS011;24596;48.080;8.362;2024-03-29T04:37:31;3.72;;;1.42;;
38843;SDS011;24596;48.080;8.362;2024-03-29T04:39:56;3.95;;;1.40;;
38843;SDS011;24596;48.080;8.362;2024-03-29T04:42:21;6.22;;;1.35;;
38843;SDS011;24596;48.080;8.362;2024-03-29T04:44:46;3.97;;;1.10;;
38843;SDS011;24596;48.080;8.362;2024-03-29T04:47:12;6.22;;;1.10;;
38843;SDS011;24596;48.080;8.362;2024-03-29T04:49:40;3.20;;;1.25;;
38843;SDS011;24596;48.080;8.362;2024-03-29T04:52:06;3.17;;;0.98;;
38843;SDS011;24596;48.080;8.362;2024-03-29T04:54:32;2.58;;;0.90;;
38843;SDS011;24596;48.080;8.362;2024-03-29T04:56:57;2.15;;;1.00;;
38843;SDS011;24596;48.080;8.362;2024-03-29T04:59:22;2.22;;;0.80;;
38843;SDS011;24596;48.080;8.362;2024-03-29T05:01:48;1.05;;;0.50;;
38843;SDS011;24596;48.080;8.362;2024-03-29T05:04:19;1.33;;;0.60;;
38843;SDS011;24596;48.080;8.362;2024-03-29T05:06:50;2.47;;;1.27;;
38843;SDS011;24596;48.080;8.362;2024-03-29T05:09:15;2.47;;;0.70;;
38843;SDS011;24596;48.080;8.362;2024-03-29T05:11:41;1.08;;;0.40;;
38843;SDS011;24596;48.080;8.362;2024-03-29T05:14:07;1.15;;;0.40;;
38843;SDS011;24596;48.080;8.362;2024-03-29T05:16:32;0.75;;;0.47;;
38843;SDS011;24596;48.080;8.362;2024-03-29T05:18:57;0.95;;;0.50;;
38843;SDS011;24596;48.080;8.362;2024-03-29T05:21:23;1.33;;;0.40;;
38843;SDS011;24596;48.080;8.362;2024-03-29T05:23:48;0.85;;;0.35;;
38843;SDS011;24596;48.080;8.362;2024-03-29T05:26:13;3.30;;;0.57;;
38843;SDS011;24596;48.080;8.362;2024-03-29T05:28:38;0.40;;;0.35;;
38843;SDS011;24596;48.080;8.362;2024-03-29T05:31:11;2.08;;;0.60;;
38843;SDS011;24596;48.080;8.362;2024-03-29T05:33:36;1.65;;;0.50;;
38843;SDS011;24596;48.080;8.362;2024-03-29T05:36:02;1.35;;;0.47;;
38843;SDS011;24596;48.080;8.362;2024-03-29T05:38:29;1.92;;;0.50;;
38843;SDS011;24596;48.080;8.362;2024-03-29T05:40:55;1.40;;;0.60;;
38843;SDS011;24596;48.080;8.362;2024-03-29T05:43:20;1.05;;;0.35;;
38843;SDS011;24596;48.080;8.362;2024-03-29T05:45:45;0.73;;;0.50;;
38843;SDS011;24596;48.080;8.362;2024-03-29T05:48:10;0.80;;;0.40;;
38843;SDS011;24596;48.080;8.362;2024-03-29T05:50:36;1.60;;;0.52;;
38843;SDS011;24596;48.080;8.362;2024-03-29T05:53:01;3.70;;;0.55;;
38843;SDS011;24596;48.080;8.362;2024-03-29T05:55:26;1.85;;;0.40;;
38843;SDS011;24596;48.080;8.362;2024-03-29T05:57:52;0.90;;;0.50;;
38843;SDS011;24596;48.080;8.362;2024-03-29T06:00:17;2.17;;;0.70;;
38843;SDS011;24596;48.080;8.362;2024-03-29T06:02:43;0.95;;;0.50;;
38843;SDS011;24596;48.080;8.362;2024-03-29T06:05:10;1.45;;;0.55;;
38843;SDS011;24596;48.080;8.362;2024-03-29T06:07:35;3.97;;;1.00;;
38843;SDS011;24596;48.080;8.362;2024-03-29T06:10:01;1.73;;;0.70;;
38843;SDS011;24596;48.080;8.362;2024-03-29T06:12:29;1.02;;;0.50;;
38843;SDS011;24596;48.080;8.362;2024-03-29T06:14:54;2.63;;;0.88;;
38843;SDS011;24596;48.080;8.362;2024-03-29T06:17:38;1.58;;;0.40;;
38843;SDS011;24596;48.080;8.362;2024-03-29T06:20:04;2.90;;;0.80;;
38843;SDS011;24596;48.080;8.362;2024-03-29T06:22:30;3.00;;;1.10;;
38843;SDS011;24596;48.080;8.362;2024-03-29T06:24:56;2.05;;;0.82;;
38843;SDS011;24596;48.080;8.362;2024-03-29T06:27:24;1.23;;;0.57;;
38843;SDS011;24596;48.080;8.362;2024-03-29T06:29:49;9.20;;;1.00;;
38843;SDS011;24596;48.080;8.362;2024-03-29T06:32:15;1.63;;;0.60;;
38843;SDS011;24596;48.080;8.362;2024-03-29T06:34:41;5.05;;;0.88;;
38843;SDS011;24596;48.080;8.362;2024-03-29T06:37:06;2.53;;;0.95;;
38843;SDS011;24596;48.080;8.362;2024-03-29T06:39:32;3.15;;;0.90;;
38843;SDS011;24596;48.080;8.362;2024-03-29T06:41:58;5.20;;;2.00;;
38843;SDS011;24596;48.080;8.362;2024-03-29T06:44:23;3.75;;;1.50;;
38843;SDS011;24596;48.080;8.362;2024-03-29T06:46:48;3.90;;;1.38;;
38843;SDS011;24596;48.080;8.362;2024-03-29T06:49:14;4.13;;;0.93;;
38843;SDS011;24596;48.080;8.362;2024-03-29T06:51:40;1.77;;;0.60;;
38843;SDS011;24596;48.080;8.362;2024-03-29T06:54:05;1.55;;;0.60;;
38843;SDS011;24596;48.080;8.362;2024-03-29T06:56:31;0.75;;;0.50;;
38843;SDS011;24596;48.080;8.362;2024-03-29T06:58:56;3.13;;;0.43;;
38843;SDS011;24596;48.080;8.362;2024-03-29T07:01:21;2.25;;;0.40;;
38843;SDS011;24596;48.080;8.362;2024-03-29T07:03:47;2.03;;;0.55;;
38843;SDS011;24596;48.080;8.362;2024-03-29T07:06:12;3.47;;;1.00;;
38843;SDS011;24596;48.080;8.362;2024-03-29T07:08:37;2.17;;;0.60;;
38843;SDS011;24596;48.080;8.362;2024-03-29T07:11:03;6.40;;;0.70;;
38843;SDS011;24596;48.080;8.362;2024-03-29T07:13:29;2.58;;;0.88;;
38843;SDS011;24596;48.080;8.362;2024-03-29T07:15:57;1.90;;;0.70;;
38843;SDS011;24596;48.080;8.362;2024-03-29T07:18:23;3.17;;;0.80;;
38843;SDS011;24596;48.080;8.362;2024-03-29T07:20:49;2.55;;;0.77;;
38843;SDS011;24596;48.080;8.362;2024-03-29T07:23:14;2.47;;;0.65;;
38843;SDS011;24596;48.080;8.362;2024-03-29T07:25:39;2.28;;;0.60;;
38843;SDS011;24596;48.080;8.362;2024-03-29T07:28:05;3.83;;;0.70;;
38843;SDS011;24596;48.080;8.362;2024-03-29T07:30:30;2.88;;;0.90;;
38843;SDS011;24596;48.080;8.362;2024-03-29T07:32:55;4.82;;;1.70;;
38843;SDS011;24596;48.080;8.362;2024-03-29T07:35:20;5.97;;;2.20;;
38843;SDS011;24596;48.080;8.362;2024-03-29T07:37:46;5.57;;;1.50;;
38843;SDS011;24596;48.080;8.362;2024-03-29T07:40:14;2.80;;;1.08;;
38843;SDS011;24596;48.080;8.362;2024-03-29T07:42:39;3.83;;;1.20;;
38843;SDS011;24596;48.080;8.362;2024-03-29T07:45:05;3.33;;;0.80;;
38843;SDS011;24596;48.080;8.362;2024-03-29T07:47:30;3.60;;;0.90;;
38843;SDS011;24596;48.080;8.362;2024-03-29T07:49:55;4.07;;;2.00;;
38843;SDS011;24596;48.080;8.362;2024-03-29T07:52:20;2.75;;;1.00;;
38843;SDS011;24596;48.080;8.362;2024-03-29T07:54:46;2.38;;;1.10;;
38843;SDS011;24596;48.080;8.362;2024-03-29T07:57:12;3.50;;;1.15;;
38843;SDS011;24596;48.080;8.362;2024-03-29T07:59:39;4.43;;;0.90;;
38843;SDS011;24596;48.080;8.362;2024-03-29T08:02:05;2.05;;;0.80;;
38843;SDS011;24596;48.080;8.362;2024-03-29T08:04:30;4.10;;;1.05;;
38843;SDS011;24596;48.080;8.362;2024-03-29T08:06:55;2.85;;;0.95;;
38843;SDS011;24596;48.080;8.362;2024-03-29T08:09:20;3.67;;;0.90;;
38843;SDS011;24596;48.080;8.362;2024-03-29T08:11:46;5.78;;;1.73;;
38843;SDS011;24596;48.080;8.362;2024-03-29T08:14:11;2.63;;;0.70;;
38843;SDS011;24596;48.080;8.362;2024-03-29T08:16:36;3.40;;;1.02;;
38843;SDS011;24596;48.080;8.362;2024-03-29T08:19:01;3.47;;;1.20;;
38843;SDS011;24596;48.080;8.362;2024-03-29T08:21:27;3.63;;;0.95;;
38843;SDS011;24596;48.080;8.362;2024-03-29T08:23:52;2.08;;;0.70;;
38843;SDS011;24596;48.080;8.362;2024-03-29T08:26:20;4.25;;;0.75;;
38843;SDS011;24596;48.080;8.362;2024-03-29T08:28:45;1.95;;;0.73;;
38843;SDS011;24596;48.080;8.362;2024-03-29T08:31:11;3.58;;;0.82;;
38843;SDS011;24596;48.080;8.362;2024-03-29T08:33:37;1.83;;;0.70;;
38843;SDS011;24596;48.080;8.362;2024-03-29T08:36:06;4.35;;;1.15;;
38843;SDS011;24596;48.080;8.362;2024-03-29T08:38:33;4.50;;;1.30;;
38843;SDS011;24596;48.080;8.362;2024-03-29T08:40:58;1.15;;;0.45;;
38843;SDS011;24596;48.080;8.362;2024-03-29T08:43:24;3.75;;;1.40;;
38843;SDS011;24596;48.080;8.362;2024-03-29T08:45:49;1.75;;;0.70;;
38843;SDS011;24596;48.080;8.362;2024-03-29T08:48:14;1.25;;;0.70;;
38843;SDS011;24596;48.080;8.362;2024-03-29T08:50:43;2.20;;;0.90;;
38843;SDS011;24596;48.080;8.362;2024-03-29T08:53:08;1.23;;;0.50;;
38843;SDS011;24596;48.080;8.362;2024-03-29T08:55:34;2.53;;;1.10;;
38843;SDS011;24596;48.080;8.362;2024-03-29T08:58:00;3.60;;;0.60;;
38843;SDS011;24596;48.080;8.362;2024-03-29T09:00:25;1.40;;;0.50;;
38843;SDS011;24596;48.080;8.362;2024-03-29T09:02:51;3.95;;;0.63;;
38843;SDS011;24596;48.080;8.362;2024-03-29T09:05:16;2.03;;;0.50;;
38843;SDS011;24596;48.080;8.362;2024-03-29T09:07:41;1.70;;;0.50;;
38843;SDS011;24596;48.080;8.362;2024-03-29T09:10:07;0.80;;;0.30;;
38843;SDS011;24596;48.080;8.362;2024-03-29T09:12:32;2.72;;;0.50;;
38843;SDS011;24596;48.080;8.362;2024-03-29T09:14:58;4.28;;;1.55;;
38843;SDS011;24596;48.080;8.362;2024-03-29T09:17:23;3.55;;;0.90;;
38843;SDS011;24596;48.080;8.362;2024-03-29T09:19:50;2.97;;;0.60;;
38843;SDS011;24596;48.080;8.362;2024-03-29T09:22:16;1.63;;;0.65;;
38843;SDS011;24596;48.080;8.362;2024-03-29T09:24:42;1.55;;;0.60;;
38843;SDS011;24596;48.080;8.362;2024-03-29T09:27:07;2.28;;;0.57;;
38843;SDS011;24596;48.080;8.362;2024-03-29T09:29:32;1.60;;;0.60;;
38843;SDS011;24596;48.080;8.362;2024-03-29T09:31:59;4.03;;;0.77;;
38843;SDS011;24596;48.080;8.362;2024-03-29T09:34:25;1.17;;;0.30;;
38843;SDS011;24596;48.080;8.362;2024-03-29T09:36:50;2.53;;;0.52;;
38843;SDS011;24596;48.080;8.362;2024-03-29T09:39:16;2.67;;;0.70;;
38843;SDS011;24596;48.080;8.362;2024-03-29T09:41:42;0.90;;;0.40;;
38843;SDS011;24596;48.080;8.362;2024-03-29T09:44:09;1.02;;;0.40;;
38843;SDS011;24596;48.080;8.362;2024-03-29T09:46:36;3.10;;;0.30;;
38843;SDS011;24596;48.080;8.362;2024-03-29T09:49:04;1.20;;;0.43;;
38843;SDS011;24596;48.080;8.362;2024-03-29T09:51:31;1.52;;;0.50;;
38843;SDS011;24596;48.080;8.362;2024-03-29T09:53:57;0.13;;;0.10;;
38843;SDS011;24596;48.080;8.362;2024-03-29T09:56:25;2.03;;;0.40;;
38843;SDS011;24596;48.080;8.362;2024-03-29T09:58:50;1.42;;;0.30;;
38843;SDS011;24596;48.080;8.362;2024-03-29T10:01:16;1.27;;;0.35;;
38843;SDS011;24596;48.080;8.362;2024-03-29T10:03:42;1.90;;;0.70;;
38843;SDS011;24596;48.080;8.362;2024-03-29T10:06:08;1.83;;;0.80;;
38843;SDS011;24596;48.080;8.362;2024-03-29T10:08:33;3.28;;;1.00;;
38843;SDS011;24596;48.080;8.362;2024-03-29T10:10:59;5.30;;;1.83;;
38843;SDS011;24596;48.080;8.362;2024-03-29T10:13:24;8.27;;;4.20;;
38843;SDS011;24596;48.080;8.362;2024-03-29T10:15:53;4.85;;;1.73;;
38843;SDS011;24596;48.080;8.362;2024-03-29T10:18:20;9.43;;;7.20;;
38843;SDS011;24596;48.080;8.362;2024-03-29T10:20:46;3.55;;;1.98;;
38843;SDS011;24596;48.080;8.362;2024-03-29T10:23:11;2.72;;;0.75;;
38843;SDS011;24596;48.080;8.362;2024-03-29T10:25:37;10.38;;;5.18;;
38843;SDS011;24596;48.080;8.362;2024-03-29T10:28:02;7.90;;;3.05;;
38843;SDS011;24596;48.080;8.362;2024-03-29T10:30:28;5.68;;;1.58;;
38843;SDS011;24596;48.080;8.362;2024-03-29T10:32:55;2.25;;;0.80;;
38843;SDS011;24596;48.080;8.362;2024-03-29T10:35:20;6.38;;;4.28;;
38843;SDS011;24596;48.080;8.362;2024-03-29T10:37:45;4.57;;;1.75;;
38843;SDS011;24596;48.080;8.362;2024-03-29T10:40:11;5.10;;;1.80;;
38843;SDS011;24596;48.080;8.362;2024-03-29T10:42:40;6.65;;;1.30;;
38843;SDS011;24596;48.080;8.362;2024-03-29T10:45:06;2.83;;;0.80;;
38843;SDS011;24596;48.080;8.362;2024-03-29T10:47:31;2.35;;;0.70;;
38843;SDS011;24596;48.080;8.362;2024-03-29T10:49:57;2.13;;;1.00;;
38843;SDS011;24596;48.080;8.362;2024-03-29T10:52:23;2.42;;;1.00;;
38843;SDS011;24596;48.080;8.362;2024-03-29T10:54:49;1.90;;;0.88;;
38843;SDS011;24596;48.080;8.362;2024-03-29T10:57:25;2.60;;;0.98;;
38843;SDS011;24596;48.080;8.362;2024-03-29T11:04:53;3.08;;;1.20;;
38843;SDS011;24596;48.080;8.362;2024-03-29T11:07:19;3.60;;;0.98;;
38843;SDS011;24596;48.080;8.362;2024-03-29T11:09:48;2.88;;;1.25;;
38843;SDS011;24596;48.080;8.362;2024-03-29T11:12:15;1.20;;;0.50;;
38843;SDS011;24596;48.080;8.362;2024-03-29T11:14:52;2.58;;;0.73;;
38843;SDS011;24596;48.080;8.362;2024-03-29T11:17:20;3.17;;;1.25;;
38843;SDS011;24596;48.080;8.362;2024-03-29T11:19:46;1.73;;;0.77;;
38843;SDS011;24596;48.080;8.362;2024-03-29T11:22:11;1.90;;;0.50;;
38843;SDS011;24596;48.080;8.362;2024-03-29T11:24:38;1.45;;;0.50;;
38843;SDS011;24596;48.080;8.362;2024-03-29T11:27:08;1.75;;;0.45;;
38843;SDS011;24596;48.080;8.362;2024-03-29T11:29:34;1.42;;;0.50;;
38843;SDS011;24596;48.080;8.362;2024-03-29T11:32:00;0.90;;;0.40;;
38843;SDS011;24596;48.080;8.362;2024-03-29T11:34:30;0.95;;;0.40;;
38843;SDS011;24596;48.080;8.362;2024-03-29T11:36:55;1.20;;;0.47;;
38843;SDS011;24596;48.080;8.362;2024-03-29T11:39:33;3.30;;;0.60;;
38843;SDS011;24596;48.080;8.362;2024-03-29T11:41:58;2.25;;;0.50;;
38843;SDS011;24596;48.080;8.362;2024-03-29T11:44:25;2.30;;;0.65;;
38843;SDS011;24596;48.080;8.362;2024-03-29T11:46:51;1.10;;;0.40;;
38843;SDS011;24596;48.080;8.362;2024-03-29T11:49:17;3.22;;;0.40;;
38843;SDS011;24596;48.080;8.362;2024-03-29T11:51:42;1.20;;;0.52;;
38843;SDS011;24596;48.080;8.362;2024-03-29T11:54:07;1.90;;;0.40;;
38843;SDS011;24596;48.080;8.362;2024-03-29T11:56:36;6.10;;;2.72;;
38843;SDS011;24596;48.080;8.362;2024-03-29T11:59:03;2.85;;;0.70;;
38843;SDS011;24596;48.080;8.362;2024-03-29T12:01:28;2.17;;;0.40;;
38843;SDS011;24596;48.080;8.362;2024-03-29T12:04:00;1.25;;;0.50;;
38843;SDS011;24596;48.080;8.362;2024-03-29T12:06:26;1.17;;;0.40;;
38843;SDS011;24596;48.080;8.362;2024-03-29T12:08:54;3.17;;;0.60;;
38843;SDS011;24596;48.080;8.362;2024-03-29T12:11:21;1.52;;;0.30;;
38843;SDS011;24596;48.080;8.362;2024-03-29T12:13:46;1.40;;;0.40;;
38843;SDS011;24596;48.080;8.362;2024-03-29T12:16:12;2.42;;;0.50;;
38843;SDS011;24596;48.080;8.362;2024-03-29T12:18:37;2.88;;;0.50;;
38843;SDS011;24596;48.080;8.362;2024-03-29T12:21:03;1.10;;;0.35;;
38843;SDS011;24596;48.080;8.362;2024-03-29T12:23:31;2.15;;;0.40;;
38843;SDS011;24596;48.080;8.362;2024-03-29T12:25:57;1.70;;;0.50;;
38843;SDS011;24596;48.080;8.362;2024-03-29T12:28:23;1.38;;;0.40;;
38843;SDS011;24596;48.080;8.362;2024-03-29T12:30:51;1.38;;;0.50;;
38843;SDS011;24596;48.080;8.362;2024-03-29T12:33:18;1.05;;;0.50;;
38843;SDS011;24596;48.080;8.362;2024-03-29T12:35:50;1.13;;;0.43;;
38843;SDS011;24596;48.080;8.362;2024-03-29T12:38:18;1.60;;;0.35;;
38843;SDS011;24596;48.080;8.362;2024-03-29T12:40:47;1.98;;;0.50;;
38843;SDS011;24596;48.080;8.362;2024-03-29T12:43:13;1.75;;;0.40;;
38843;SDS011;24596;48.080;8.362;2024-03-29T12:45:39;1.30;;;0.43;;
38843;SDS011;24596;48.080;8.362;2024-03-29T12:48:11;2.35;;;0.40;;
38843;SDS011;24596;48.080;8.362;2024-03-29T12:50:40;2.25;;;0.60;;
38843;SDS011;24596;48.080;8.362;2024-03-29T12:53:09;0.98;;;0.50;;
38843;SDS011;24596;48.080;8.362;2024-03-29T12:55:35;1.77;;;0.40;;
38843;SDS011;24596;48.080;8.362;2024-03-29T12:58:01;1.25;;;0.40;;
38843;SDS011;24596;48.080;8.362;2024-03-29T13:00:29;1.75;;;0.45;;
38843;SDS011;24596;48.080;8.362;2024-03-29T13:02:54;1.13;;;0.40;;
38843;SDS011;24596;48.080;8.362;2024-03-29T13:05:20;2.05;;;0.40;;
38843;SDS011;24596;48.080;8.362;2024-03-29T13:07:45;0.60;;;0.38;;
38843;SDS011;24596;48.080;8.362;2024-03-29T13:10:10;1.42;;;0.40;;
38843;SDS011;24596;48.080;8.362;2024-03-29T13:12:41;3.85;;;0.47;;
38843;SDS011;24596;48.080;8.362;2024-03-29T13:15:15;1.02;;;0.30;;
38843;SDS011;24596;48.080;8.362;2024-03-29T13:17:41;0.68;;;0.20;;
38843;SDS011;24596;48.080;8.362;2024-03-29T13:20:06;1.92;;;0.38;;
38843;SDS011;24596;48.080;8.362;2024-03-29T13:22:31;1.80;;;0.30;;
38843;SDS011;24596;48.080;8.362;2024-03-29T13:24:57;0.95;;;0.20;;
38843;SDS011;24596;48.080;8.362;2024-03-29T13:27:22;1.77;;;0.30;;
38843;SDS011;24596;48.080;8.362;2024-03-29T13:29:47;2.50;;;0.40;;
38843;SDS011;24596;48.080;8.362;2024-03-29T13:32:13;2.20;;;0.30;;
38843;SDS011;24596;48.080;8.362;2024-03-29T13:34:39;2.05;;;0.38;;
38843;SDS011;24596;48.080;8.362;2024-03-29T13:37:07;0.80;;;0.30;;
38843;SDS011;24596;48.080;8.362;2024-03-29T13:39:32;1.60;;;0.43;;
38843;SDS011;24596;48.080;8.362;2024-03-29T13:41:58;0.82;;;0.30;;
38843;SDS011;24596;48.080;8.362;2024-03-29T13:44:23;0.20;;;0.10;;
38843;SDS011;24596;48.080;8.362;2024-03-29T13:46:49;0.93;;;0.20;;
38843;SDS011;24596;48.080;8.362;2024-03-29T13:49:14;0.43;;;0.13;;
38843;SDS011;24596;48.080;8.362;2024-03-29T13:51:40;1.25;;;0.30;;
38843;SDS011;24596;48.080;8.362;2024-03-29T13:54:05;0.95;;;0.28;;
38843;SDS011;24596;48.080;8.362;2024-03-29T13:56:30;0.55;;;0.30;;
38843;SDS011;24596;48.080;8.362;2024-03-29T13:58:56;1.15;;;0.30;;
38843;SDS011;24596;48.080;8.362;2024-03-29T14:01:21;1.45;;;0.40;;
38843;SDS011;24596;48.080;8.362;2024-03-29T14:03:46;0.55;;;0.25;;
38843;SDS011;24596;48.080;8.362;2024-03-29T14:06:12;2.17;;;0.43;;
38843;SDS011;24596;48.080;8.362;2024-03-29T14:08:37;0.75;;;0.30;;
38843;SDS011;24596;48.080;8.362;2024-03-29T14:11:02;0.43;;;0.17;;
38843;SDS011;24596;48.080;8.362;2024-03-29T14:13:27;0.95;;;0.20;;
38843;SDS011;24596;48.080;8.362;2024-03-29T14:15:53;1.48;;;0.30;;
38843;SDS011;24596;48.080;8.362;2024-03-29T14:18:19;0.47;;;0.20;;
38843;SDS011;24596;48.080;8.362;2024-03-29T14:20:44;3.03;;;0.28;;
38843;SDS011;24596;48.080;8.362;2024-03-29T14:23:10;0.47;;;0.30;;
38843;SDS011;24596;48.080;8.362;2024-03-29T14:25:37;1.15;;;0.22;;
38843;SDS011;24596;48.080;8.362;2024-03-29T14:28:03;0.50;;;0.20;;
38843;SDS011;24596;48.080;8.362;2024-03-29T14:30:29;1.58;;;0.28;;
38843;SDS011;24596;48.080;8.362;2024-03-29T14:32:55;0.55;;;0.30;;
38843;SDS011;24596;48.080;8.362;2024-03-29T14:35:20;0.68;;;0.30;;
38843;SDS011;24596;48.080;8.362;2024-03-29T14:37:46;0.80;;;0.30;;
38843;SDS011;24596;48.080;8.362;2024-03-29T14:40:11;1.67;;;0.40;;
38843;SDS011;24596;48.080;8.362;2024-03-29T14:42:43;1.30;;;0.45;;
38843;SDS011;24596;48.080;8.362;2024-03-29T14:45:09;0.63;;;0.15;;